Wetterdaten: Woche 08.09.14 - 14.09.14 (KW37)
Datum Zeit Temperatur Luftfeuchte Luftdruck Niederschlag Windrichtung Sonnenschein Solar Wind
08.09.2014 00:00 16,7 C 89 % 1012,6 hPa 0,0 l/m N 0,00 h 0 W/m 1,3 km/h (1 Bft)
08.09.2014 01:00 15,9 C 91 % 1012,7 hPa 0,0 l/m N 0,00 h 0 W/m 0,3 km/h (0 Bft)
08.09.2014 02:00 15,1 C 91 % 1012,6 hPa 0,0 l/m N 0,00 h 0 W/m 0,0 km/h (0 Bft)
08.09.2014 03:00 14,7 C 92 % 1012,4 hPa 0,0 l/m N 0,00 h 0 W/m 0,0 km/h (0 Bft)
08.09.2014 04:00 14,3 C 93 % 1012,2 hPa 0,0 l/m N 0,00 h 0 W/m 1,3 km/h (1 Bft)
08.09.2014 05:00 14,2 C 94 % 1012,3 hPa 0,0 l/m N 0,00 h 0 W/m 0,0 km/h (0 Bft)
08.09.2014 06:00 13,9 C 95 % 1012,6 hPa 0,0 l/m N 0,00 h 5 W/m 0,0 km/h (0 Bft)
08.09.2014 07:00 13,8 C 96 % 1012,9 hPa 0,0 l/m N 0,00 h 21 W/m 0,3 km/h (0 Bft)
08.09.2014 08:00 14,3 C 96 % 1013,2 hPa 0,0 l/m N 0,00 h 64 W/m 0,4 km/h (0 Bft)
08.09.2014 09:00 16,4 C 94 % 1013,3 hPa 0,0 l/m W 0,83 h 335 W/m 3,5 km/h (1 Bft)
08.09.2014 10:00 19,0 C 84 % 1013,4 hPa 0,0 l/m S-SW 1,00 h 475 W/m 7,0 km/h (2 Bft)
08.09.2014 11:00 21,2 C 78 % 1013,6 hPa 0,0 l/m S-SO 1,00 h 612 W/m 6,1 km/h (2 Bft)
08.09.2014 12:00 22,9 C 72 % 1013,3 hPa 0,0 l/m S 1,00 h 717 W/m 8,7 km/h (2 Bft)
08.09.2014 13:00 24,3 C 64 % 1013,0 hPa 0,0 l/m S 0,83 h 639 W/m 12,1 km/h (2 Bft)
08.09.2014 14:00 24,3 C 66 % 1012,8 hPa 0,0 l/m S 0,00 h 239 W/m 9,3 km/h (2 Bft)
08.09.2014 15:00 22,7 C 74 % 1012,7 hPa 0,0 l/m N-NO 0,00 h 67 W/m 5,8 km/h (1 Bft)
08.09.2014 16:00 20,6 C 82 % 1012,7 hPa 0,0 l/m N-NO 0,00 h 105 W/m 4,4 km/h (1 Bft)
08.09.2014 17:00 21,1 C 83 % 1012,6 hPa 0,0 l/m N-NO 0,42 h 199 W/m 2,4 km/h (1 Bft)
08.09.2014 18:00 21,8 C 79 % 1012,6 hPa 0,0 l/m N 0,33 h 77 W/m 0,5 km/h (0 Bft)
08.09.2014 19:00 20,1 C 84 % 1012,8 hPa 0,0 l/m N 0,08 h 22 W/m 0,8 km/h (0 Bft)
08.09.2014 20:00 18,9 C 85 % 1013,4 hPa 0,0 l/m N 0,00 h 0 W/m 0,1 km/h (0 Bft)
08.09.2014 21:00 17,5 C 87 % 1014,1 hPa 0,0 l/m N-NO 0,00 h 0 W/m 0,9 km/h (0 Bft)
08.09.2014 22:00 17,1 C 91 % 1014,5 hPa 0,4 l/m N 0,00 h 0 W/m 4,3 km/h (1 Bft)
08.09.2014 23:00 16,9 C 93 % 1014,3 hPa 0,0 l/m N 0,00 h 0 W/m 1,3 km/h (1 Bft)
09.09.2014 00:00 16,4 C 94 % 1014,4 hPa 0,0 l/m N 0,00 h 0 W/m 4,8 km/h (1 Bft)
09.09.2014 01:00 15,9 C 94 % 1014,3 hPa 0,0 l/m N 0,00 h 0 W/m 3,5 km/h (1 Bft)
09.09.2014 02:00 15,5 C 94 % 1014,4 hPa 0,0 l/m N 0,00 h 0 W/m 0,9 km/h (0 Bft)
09.09.2014 03:00 14,9 C 94 % 1014,0 hPa 0,0 l/m N 0,00 h 0 W/m 0,1 km/h (0 Bft)
09.09.2014 04:00 14,6 C 95 % 1013,7 hPa 0,0 l/m N 0,00 h 0 W/m 3,3 km/h (1 Bft)
09.09.2014 05:00 14,3 C 95 % 1013,9 hPa 0,0 l/m N 0,00 h 0 W/m 0,5 km/h (0 Bft)
09.09.2014 06:00 13,7 C 95 % 1014,0 hPa 0,0 l/m N 0,00 h 0 W/m 0,1 km/h (0 Bft)
09.09.2014 07:00 13,7 C 96 % 1014,3 hPa 0,0 l/m N 0,00 h 19 W/m 0,5 km/h (0 Bft)
09.09.2014 08:00 14,1 C 97 % 1014,5 hPa 0,0 l/m N 0,00 h 75 W/m 0,4 km/h (0 Bft)
09.09.2014 09:00 15,2 C 98 % 1014,8 hPa 0,0 l/m N 0,00 h 126 W/m 0,9 km/h (0 Bft)
09.09.2014 10:00 16,9 C 96 % 1015,0 hPa 0,0 l/m N-NO 0,42 h 299 W/m 4,8 km/h (1 Bft)
09.09.2014 11:00 19,1 C 88 % 1015,1 hPa 0,0 l/m O-NO 0,92 h 462 W/m 7,2 km/h (2 Bft)
09.09.2014 12:00 19,7 C 87 % 1014,9 hPa 0,0 l/m O 0,17 h 283 W/m 7,9 km/h (2 Bft)
09.09.2014 13:00 20,8 C 82 % 1014,6 hPa 0,0 l/m O-NO 0,42 h 490 W/m 8,1 km/h (2 Bft)
09.09.2014 14:00 21,7 C 77 % 1014,0 hPa 0,0 l/m O-NO 0,42 h 384 W/m 9,5 km/h (2 Bft)
09.09.2014 15:00 21,3 C 76 % 1013,8 hPa 0,0 l/m NO 0,00 h 148 W/m 4,9 km/h (1 Bft)
09.09.2014 16:00 21,4 C 76 % 1013,5 hPa 0,0 l/m N-NO 0,17 h 147 W/m 8,3 km/h (2 Bft)
09.09.2014 17:00 20,5 C 80 % 1013,4 hPa 0,0 l/m N-NO 0,08 h 105 W/m 5,6 km/h (1 Bft)
09.09.2014 18:00 20,5 C 80 % 1013,6 hPa 0,0 l/m N-NO 0,42 h 91 W/m 3,9 km/h (1 Bft)
09.09.2014 19:00 19,3 C 82 % 1013,7 hPa 0,0 l/m N-NO 0,00 h 20 W/m 3,1 km/h (1 Bft)
09.09.2014 20:00 17,8 C 86 % 1014,2 hPa 0,0 l/m N 0,00 h 0 W/m 2,1 km/h (1 Bft)
09.09.2014 21:00 16,5 C 91 % 1014,5 hPa 0,0 l/m N-NO 0,00 h 0 W/m 1,9 km/h (1 Bft)
09.09.2014 22:00 15,4 C 93 % 1014,7 hPa 0,0 l/m N-NO 0,00 h 0 W/m 2,5 km/h (1 Bft)
09.09.2014 23:00 14,7 C 93 % 1014,5 hPa 0,0 l/m N-NO 0,00 h 0 W/m 3,1 km/h (1 Bft)
10.09.2014 00:00 14,7 C 93 % 1014,6 hPa 0,0 l/m N-NO 0,00 h 0 W/m 6,3 km/h (2 Bft)
10.09.2014 01:00 14,6 C 91 % 1014,3 hPa 0,0 l/m N-NO 0,00 h 0 W/m 5,1 km/h (1 Bft)
10.09.2014 02:00 14,5 C 89 % 1014,2 hPa 0,0 l/m N-NO 0,00 h 0 W/m 4,7 km/h (1 Bft)
10.09.2014 03:00 14,2 C 90 % 1014,1 hPa 0,0 l/m N-NO 0,00 h 0 W/m 6,3 km/h (2 Bft)
10.09.2014 04:00 14,0 C 91 % 1013,9 hPa 0,0 l/m N-NO 0,00 h 0 W/m 6,1 km/h (2 Bft)
10.09.2014 05:00 13,7 C 93 % 1013,7 hPa 0,0 l/m N-NO 0,00 h 0 W/m 4,9 km/h (1 Bft)
10.09.2014 06:00 13,2 C 93 % 1013,5 hPa 0,0 l/m N-NO 0,00 h 0 W/m 6,8 km/h (2 Bft)
10.09.2014 07:00 13,1 C 93 % 1013,7 hPa 0,0 l/m N-NO 0,00 h 10 W/m 7,1 km/h (2 Bft)
10.09.2014 08:00 13,3 C 93 % 1013,8 hPa 0,2 l/m N 0,00 h 31 W/m 6,3 km/h (2 Bft)
10.09.2014 09:00 13,6 C 93 % 1013,8 hPa 0,2 l/m N 0,00 h 85 W/m 6,5 km/h (2 Bft)
10.09.2014 10:00 14,7 C 88 % 1013,9 hPa 0,0 l/m N-NO 0,00 h 149 W/m 8,3 km/h (2 Bft)
10.09.2014 11:00 16,2 C 83 % 1013,8 hPa 0,0 l/m NO 0,17 h 323 W/m 9,3 km/h (2 Bft)
10.09.2014 12:00 17,3 C 78 % 1013,4 hPa 0,0 l/m O-NO 0,25 h 302 W/m 9,2 km/h (2 Bft)
10.09.2014 13:00 18,0 C 75 % 1013,1 hPa 0,0 l/m O-NO 0,00 h 199 W/m 9,3 km/h (2 Bft)
10.09.2014 14:00 18,4 C 73 % 1012,8 hPa 0,0 l/m NO 0,00 h 241 W/m 10,3 km/h (2 Bft)
10.09.2014 15:00 18,9 C 70 % 1012,5 hPa 0,0 l/m NO 0,17 h 286 W/m 10,9 km/h (2 Bft)
10.09.2014 16:00 18,8 C 69 % 1012,3 hPa 0,0 l/m O-NO 0,25 h 264 W/m 13,2 km/h (3 Bft)
10.09.2014 17:00 18,4 C 70 % 1012,2 hPa 0,0 l/m O-NO 0,67 h 217 W/m 15,6 km/h (3 Bft)
10.09.2014 18:00 17,6 C 72 % 1012,3 hPa 0,0 l/m NO 0,42 h 87 W/m 11,3 km/h (2 Bft)
10.09.2014 19:00 16,1 C 78 % 1012,4 hPa 0,0 l/m NO 0,00 h 11 W/m 7,4 km/h (2 Bft)
10.09.2014 20:00 14,2 C 85 % 1012,6 hPa 0,0 l/m NO 0,00 h 0 W/m 5,6 km/h (1 Bft)
10.09.2014 21:00 13,1 C 87 % 1012,9 hPa 0,0 l/m NO 0,00 h 0 W/m 6,7 km/h (2 Bft)
10.09.2014 22:00 12,5 C 90 % 1013,1 hPa 0,0 l/m NO 0,00 h 0 W/m 6,4 km/h (2 Bft)
10.09.2014 23:00 12,7 C 88 % 1013,2 hPa 0,0 l/m N-NO 0,00 h 0 W/m 9,3 km/h (2 Bft)
11.09.2014 00:00 11,6 C 90 % 1013,0 hPa 0,0 l/m N-NO 0,00 h 0 W/m 4,5 km/h (1 Bft)
11.09.2014 01:00 10,6 C 93 % 1013,1 hPa 0,0 l/m N-NO 0,00 h 0 W/m 4,8 km/h (1 Bft)
11.09.2014 02:00 10,0 C 94 % 1012,7 hPa 0,0 l/m N-NO 0,00 h 0 W/m 5,3 km/h (1 Bft)
11.09.2014 03:00 9,9 C 95 % 1012,5 hPa 0,0 l/m N-NO 0,00 h 0 W/m 4,3 km/h (1 Bft)
11.09.2014 04:00 10,1 C 95 % 1012,3 hPa 0,0 l/m N-NO 0,00 h 0 W/m 4,7 km/h (1 Bft)
11.09.2014 05:00 9,4 C 96 % 1012,0 hPa 0,0 l/m N-NO 0,00 h 0 W/m 3,7 km/h (1 Bft)
11.09.2014 06:00 9,4 C 96 % 1012,0 hPa 0,0 l/m N 0,00 h 0 W/m 4,5 km/h (1 Bft)
11.09.2014 07:00 9,7 C 96 % 1012,4 hPa 0,0 l/m N 0,00 h 16 W/m 1,1 km/h (0 Bft)
11.09.2014 08:00 10,3 C 95 % 1012,7 hPa 0,0 l/m N 0,00 h 44 W/m 4,0 km/h (1 Bft)
11.09.2014 09:00 11,3 C 93 % 1012,8 hPa 0,0 l/m N 0,00 h 113 W/m 8,3 km/h (2 Bft)
11.09.2014 10:00 13,0 C 85 % 1013,0 hPa 0,0 l/m N-NO 0,67 h 398 W/m 12,0 km/h (2 Bft)
11.09.2014 11:00 14,6 C 75 % 1013,0 hPa 0,0 l/m N-NO 0,75 h 491 W/m 13,0 km/h (3 Bft)
11.09.2014 12:00 15,1 C 67 % 1012,9 hPa 0,0 l/m O-NO 0,42 h 378 W/m 14,1 km/h (3 Bft)
11.09.2014 13:00 16,3 C 61 % 1012,7 hPa 0,0 l/m N 0,33 h 387 W/m 12,0 km/h (2 Bft)
11.09.2014 14:00 15,7 C 64 % 1012,8 hPa 0,0 l/m N-NO 0,00 h 168 W/m 9,7 km/h (2 Bft)
11.09.2014 15:00 15,6 C 66 % 1012,7 hPa 0,0 l/m N 0,00 h 140 W/m 9,0 km/h (2 Bft)
11.09.2014 16:00 15,6 C 73 % 1012,6 hPa 0,2 l/m N 0,42 h 331 W/m 9,9 km/h (2 Bft)
11.09.2014 17:00 15,2 C 70 % 1012,7 hPa 0,0 l/m N 0,08 h 117 W/m 5,5 km/h (1 Bft)
11.09.2014 18:00 14,1 C 77 % 1013,2 hPa 0,0 l/m N-NW 0,00 h 29 W/m 12,9 km/h (3 Bft)
11.09.2014 19:00 12,2 C 86 % 1013,7 hPa 0,0 l/m N 0,00 h 13 W/m 6,0 km/h (2 Bft)
11.09.2014 20:00 11,6 C 90 % 1014,2 hPa 0,0 l/m N 0,00 h 0 W/m 3,1 km/h (1 Bft)
11.09.2014 21:00 11,1 C 91 % 1014,5 hPa 0,0 l/m N 0,00 h 0 W/m 3,7 km/h (1 Bft)
11.09.2014 22:00 11,0 C 92 % 1014,7 hPa 0,0 l/m N 0,00 h 0 W/m 4,7 km/h (1 Bft)
11.09.2014 23:00 10,2 C 93 % 1014,8 hPa 0,0 l/m N 0,00 h 0 W/m 4,8 km/h (1 Bft)
12.09.2014 00:00 10,1 C 95 % 1014,9 hPa 0,0 l/m N 0,00 h 0 W/m 3,3 km/h (1 Bft)
12.09.2014 01:00 9,8 C 95 % 1014,9 hPa 0,0 l/m N 0,00 h 0 W/m 2,5 km/h (1 Bft)
12.09.2014 02:00 9,9 C 95 % 1015,0 hPa 0,0 l/m N 0,00 h 0 W/m 5,1 km/h (1 Bft)
12.09.2014 03:00 9,8 C 94 % 1015,0 hPa 0,0 l/m N 0,00 h 0 W/m 6,1 km/h (2 Bft)
12.09.2014 04:00 9,6 C 94 % 1014,9 hPa 0,0 l/m N 0,00 h 0 W/m 5,9 km/h (2 Bft)
12.09.2014 05:00 9,0 C 94 % 1014,6 hPa 0,0 l/m N 0,00 h 0 W/m 3,2 km/h (1 Bft)
12.09.2014 06:00 8,7 C 95 % 1014,5 hPa 0,0 l/m N 0,00 h 0 W/m 3,9 km/h (1 Bft)
12.09.2014 07:00 9,1 C 95 % 1014,6 hPa 0,0 l/m N 0,00 h 11 W/m 4,8 km/h (1 Bft)
12.09.2014 08:00 9,6 C 95 % 1014,7 hPa 0,6 l/m NW 0,00 h 23 W/m 7,4 km/h (2 Bft)
12.09.2014 09:00 9,7 C 96 % 1014,8 hPa 1,6 l/m W-NW 0,00 h 28 W/m 5,6 km/h (1 Bft)
12.09.2014 10:00 10,2 C 97 % 1014,9 hPa 1,4 l/m W-NW 0,00 h 60 W/m 7,8 km/h (2 Bft)
12.09.2014 11:00 10,8 C 97 % 1014,9 hPa 1,0 l/m W 0,00 h 103 W/m 10,2 km/h (2 Bft)
12.09.2014 12:00 11,2 C 97 % 1014,5 hPa 1,2 l/m W 0,00 h 83 W/m 11,1 km/h (2 Bft)
12.09.2014 13:00 11,2 C 97 % 1014,5 hPa 2,8 l/m W-SW 0,00 h 82 W/m 11,8 km/h (2 Bft)
12.09.2014 14:00 11,5 C 97 % 1014,6 hPa 0,8 l/m W 0,00 h 97 W/m 7,4 km/h (2 Bft)
12.09.2014 15:00 11,6 C 96 % 1014,9 hPa 1,0 l/m W-NW 0,00 h 75 W/m 8,4 km/h (2 Bft)
12.09.2014 16:00 11,4 C 97 % 1015,0 hPa 0,6 l/m W-NW 0,00 h 58 W/m 8,0 km/h (2 Bft)
12.09.2014 17:00 11,4 C 97 % 1015,0 hPa 0,4 l/m W 0,00 h 45 W/m 11,1 km/h (2 Bft)
12.09.2014 18:00 11,1 C 97 % 1015,3 hPa 0,2 l/m W 0,00 h 21 W/m 13,0 km/h (3 Bft)
12.09.2014 19:00 11,1 C 98 % 1015,5 hPa 0,2 l/m W-SW 0,00 h 9 W/m 12,1 km/h (2 Bft)
12.09.2014 20:00 11,0 C 98 % 1015,8 hPa 1,6 l/m W 0,00 h 0 W/m 10,2 km/h (2 Bft)
12.09.2014 21:00 11,0 C 98 % 1016,1 hPa 1,2 l/m W 0,00 h 0 W/m 10,9 km/h (2 Bft)
12.09.2014 22:00 11,0 C 98 % 1016,3 hPa 1,2 l/m W 0,00 h 0 W/m 10,9 km/h (2 Bft)
12.09.2014 23:00 11,1 C 98 % 1016,5 hPa 0,6 l/m W 0,00 h 0 W/m 10,5 km/h (2 Bft)
13.09.2014 00:00 11,2 C 98 % 1016,7 hPa 0,0 l/m W-SW 0,00 h 0 W/m 11,6 km/h (2 Bft)
13.09.2014 01:00 11,1 C 98 % 1016,8 hPa 0,4 l/m W-SW 0,00 h 0 W/m 14,0 km/h (3 Bft)
13.09.2014 02:00 11,1 C 98 % 1017,2 hPa 0,4 l/m SW 0,00 h 0 W/m 8,9 km/h (2 Bft)
13.09.2014 03:00 11,1 C 99 % 1017,1 hPa 0,0 l/m SW 0,00 h 0 W/m 8,6 km/h (2 Bft)
13.09.2014 04:00 11,1 C 99 % 1017,1 hPa 0,4 l/m SW 0,00 h 0 W/m 3,1 km/h (1 Bft)
13.09.2014 05:00 11,2 C 99 % 1017,2 hPa 0,0 l/m SW 0,00 h 0 W/m 3,1 km/h (1 Bft)
13.09.2014 06:00 11,2 C 99 % 1017,5 hPa 0,4 l/m SW 0,00 h 0 W/m 2,9 km/h (1 Bft)
13.09.2014 07:00 11,2 C 99 % 1017,9 hPa 0,0 l/m N 0,00 h 11 W/m 2,3 km/h (1 Bft)
13.09.2014 08:00 11,4 C 99 % 1018,2 hPa 0,0 l/m SW 0,00 h 29 W/m 2,4 km/h (1 Bft)
13.09.2014 09:00 11,9 C 99 % 1019,0 hPa 0,0 l/m NO 0,08 h 118 W/m 8,6 km/h (2 Bft)
13.09.2014 10:00 12,4 C 98 % 1019,3 hPa 0,0 l/m NO 0,00 h 115 W/m 5,7 km/h (1 Bft)
13.09.2014 11:00 13,0 C 95 % 1019,3 hPa 0,0 l/m N-NO 0,00 h 168 W/m 9,1 km/h (2 Bft)
13.09.2014 12:00 13,9 C 90 % 1019,1 hPa 0,0 l/m NO 0,17 h 317 W/m 7,2 km/h (2 Bft)
13.09.2014 13:00 15,1 C 84 % 1019,0 hPa 0,0 l/m NO 0,00 h 293 W/m 8,8 km/h (2 Bft)
13.09.2014 14:00 15,9 C 80 % 1019,0 hPa 0,0 l/m NO 0,25 h 353 W/m 9,9 km/h (2 Bft)
13.09.2014 15:00 17,0 C 75 % 1018,8 hPa 0,0 l/m O-NO 0,75 h 443 W/m 11,0 km/h (2 Bft)
13.09.2014 16:00 17,6 C 71 % 1018,6 hPa 0,0 l/m O-NO 0,75 h 437 W/m 9,1 km/h (2 Bft)
13.09.2014 17:00 16,9 C 73 % 1018,6 hPa 0,0 l/m O-NO 0,17 h 147 W/m 6,4 km/h (2 Bft)
13.09.2014 18:00 16,3 C 78 % 1018,7 hPa 0,0 l/m O-NO 0,00 h 35 W/m 5,2 km/h (1 Bft)
13.09.2014 19:00 14,9 C 88 % 1019,0 hPa 0,2 l/m N-NO 0,00 h 7 W/m 7,6 km/h (2 Bft)
13.09.2014 20:00 14,0 C 94 % 1019,2 hPa 0,2 l/m N-NO 0,00 h 0 W/m 4,9 km/h (1 Bft)
13.09.2014 21:00 13,7 C 96 % 1019,2 hPa 0,0 l/m N 0,00 h 0 W/m 6,9 km/h (2 Bft)
13.09.2014 22:00 13,6 C 97 % 1019,1 hPa 0,0 l/m N 0,00 h 0 W/m 2,5 km/h (1 Bft)
13.09.2014 23:00 13,2 C 98 % 1019,0 hPa 0,0 l/m N 0,00 h 0 W/m 2,0 km/h (1 Bft)
14.09.2014 00:00 13,4 C 98 % 1018,8 hPa 0,0 l/m N 0,00 h 0 W/m 2,7 km/h (1 Bft)
14.09.2014 01:00 13,4 C 98 % 1018,5 hPa 0,4 l/m N 0,00 h 0 W/m 1,6 km/h (1 Bft)
14.09.2014 02:00 13,4 C 98 % 1017,8 hPa 0,2 l/m N 0,00 h 0 W/m 0,0 km/h (0 Bft)
14.09.2014 03:00 13,5 C 98 % 1017,3 hPa 0,0 l/m N 0,00 h 0 W/m 4,3 km/h (1 Bft)
14.09.2014 04:00 13,6 C 98 % 1017,0 hPa 0,0 l/m N 0,00 h 0 W/m 7,1 km/h (2 Bft)
14.09.2014 05:00 13,6 C 98 % 1016,6 hPa 0,0 l/m N 0,00 h 0 W/m 6,4 km/h (2 Bft)
14.09.2014 06:00 13,6 C 98 % 1016,2 hPa 0,2 l/m N 0,00 h 0 W/m 7,5 km/h (2 Bft)
14.09.2014 07:00 13,6 C 98 % 1016,4 hPa 0,0 l/m NO 0,00 h 9 W/m 9,1 km/h (2 Bft)
14.09.2014 08:00 14,0 C 99 % 1016,3 hPa 0,0 l/m NO 0,17 h 112 W/m 4,8 km/h (1 Bft)
14.09.2014 09:00 15,0 C 95 % 1016,3 hPa 0,0 l/m O-NO 0,33 h 195 W/m 10,6 km/h (2 Bft)
14.09.2014 10:00 15,6 C 90 % 1016,4 hPa 0,0 l/m O-NO 0,17 h 186 W/m 12,6 km/h (3 Bft)
14.09.2014 11:00 16,5 C 86 % 1016,2 hPa 0,0 l/m O-NO 0,67 h 488 W/m 16,0 km/h (3 Bft)
14.09.2014 12:00 17,4 C 82 % 1015,8 hPa 0,0 l/m O-NO 0,67 h 537 W/m 17,2 km/h (3 Bft)
14.09.2014 13:00 18,2 C 79 % 1015,4 hPa 0,0 l/m NO 0,75 h 683 W/m 16,2 km/h (3 Bft)
14.09.2014 14:00 18,8 C 76 % 1015,1 hPa 0,0 l/m NO 0,58 h 512 W/m 19,0 km/h (3 Bft)
14.09.2014 15:00 18,8 C 75 % 1014,7 hPa 0,0 l/m O-NO 0,67 h 438 W/m 18,0 km/h (3 Bft)
14.09.2014 16:00 19,5 C 71 % 1014,3 hPa 0,0 l/m O-NO 1,00 h 493 W/m 17,8 km/h (3 Bft)
14.09.2014 17:00 19,3 C 72 % 1013,9 hPa 0,0 l/m O-NO 0,92 h 313 W/m 17,7 km/h (3 Bft)
14.09.2014 18:00 18,7 C 73 % 1013,9 hPa 0,0 l/m O-NO 0,75 h 132 W/m 10,9 km/h (2 Bft)
14.09.2014 19:00 17,5 C 80 % 1014,1 hPa 0,0 l/m O-NO 0,00 h 12 W/m 8,3 km/h (2 Bft)
14.09.2014 20:00 16,4 C 86 % 1014,5 hPa 0,0 l/m O-NO 0,00 h 0 W/m 8,7 km/h (2 Bft)
14.09.2014 21:00 15,5 C 90 % 1014,4 hPa 0,0 l/m O-NO 0,00 h 0 W/m 10,1 km/h (2 Bft)
14.09.2014 22:00 14,8 C 92 % 1014,3 hPa 0,0 l/m NO 0,00 h 0 W/m 8,0 km/h (2 Bft)
14.09.2014 23:00 14,4 C 94 % 1014,3 hPa 0,0 l/m NO 0,00 h 0 W/m 6,4 km/h (2 Bft)
Min-Datum _ 12.09.14 11.09.14 11.09.14 - - - - 08.09.14
_ Min-Zeit 06:20 13:15 05:25 - - - - 00:00
Minimum _ 8,5 C 58 % 1011,9 hPa - - - - 0,0 km/h (0 Bft)
Max-Datum _ 08.09.14 09.09.14 13.09.14 12.09.14 - 08.09.14 08.09.14 14.09.14
_ Max-Zeit 13:40 09:55 10:00 13:10 - 09:10 13:45 14:20
Maximum _ 24,7 C 99 % 1019,4 hPa 2,8 l/m - 0,08 h 896 W/m 27,4 km/h
O-NO (4 Bft)
Durchschnitt _ 14,6 C 89 % 1014,7 hPa #20,2 l/m N-NO #21:55 h 199 W/m 6,6 km/h (2 Bft)